Terminal Aerodrome Forecast
Issued by NWS Flagstaff, AZ

Home | Current Version | Previous Version | Text Only | Print | Product List | Glossary On
Versions: 1 2 3 4 5 6 7 8 9 10 11 12 13 14 15 16 17 18 19
000
FTUS45 KFGZ 251500 AAC
TAFFLG
TAF AMD
KFLG 251555Z 2516/2612 22011KT P6SM VCSH SCT008 BKN012 OVC025
      TEMPO 2516/2519 22012G20KT 5SM -SHRA BKN008
     FM251900 23014G28KT P6SM VCSH SCT008 BKN012 OVC020
      TEMPO 2519/2523 3SM -SHRA BR BKN006
     FM252300 23011G19KT 2SM -RA BR SCT005 OVC008
     FM260800 24010G18KT 1SM -SHRASN BR OVC005=

USA.gov is the U.S. government's official web portal to all federal, state and local government web resources and services.